Hovedside
METAR-TAF:

METAR-TAF

Lufthavner :

Auckland, New Zealand

Auckland internasjonale lufthavn

breddegrad: 37-01S, lengdegrad: 174-48E, høyde over havet: 7 m

Gjeldene værobservasjon

Denne rapporten ble laget for 33 minutter siden, klokken 06:30 UTC
Vind 6 kt fra Sør-sørvest
Temperatur 16°C
Luftfuktighet 72%
Trykk 1022 hPa
Sikt 10 km eller mer

METAR: NZAA 250630Z AUTO 20006KT 9999 NCD 16/11 Q1022 NOSIG

Tid: 19:03 (07:03 UTC)

Varsel

Denne rapporten ble laget for 2 timer og 6 minutter siden, klokken 04:57 UTC
Varsel gyldig fra 25. klokken 06 UTC til 26. klokken 06 UTC
Vind 10 kt fra Sørvest
Sikt 10 km eller mer
Få skyer i en høyde av 3000 ft
Blir
fra 25. klokken 08 UTC til 25. klokken 10 UTC
Vind 5 kt fra Sørøst

TAF: NZAA 250457Z 2506/2606 22010KT 9999 FEW030 BECMG 2508/2510 14005KT

Værobservasjoner og værvarsel for over 4000 flyplasser (METAR- og TAF-rapporter).

Tilgjengelige stasjoner er representert av de røde og gule prikkene på kartet.

Hold musepekeren over prikken for å se navnet på stasjonen.

Klikk så for å se værobservasjoner og -varsler.

For å forandre kartet kan du klikke på den grønne knappen med svart kryss for å zoome inn, på den grønne knappen med strek for å zoome ut, eller på de grønne pilene for å se tilstøtende kart.


METAR-TAF: